Terminal Aerodrome Forecast
Issued by NWS Louisville, KY

Home | Current Version | Previous Version | Text Only | Print | Product List | Glossary On
Versions: 1 2 3 4 5 6 7 8 9 10 11 12 13 14 15 16 17 18
000
FTUS43 KLMK 272338
TAFLEX
TAF
KLEX 272338Z 2800/2824 VRB03KT P6SM BKN250
     FM280600 18004KT 6SM BR VCSH BKN050
     FM281300 25004KT P6SM VCTS BKN040CB
     FM282300 VRB05KT P6SM SCT035 BKN050=

USA.gov is the U.S. government's official web portal to all federal, state and local government web resources and services.